sensor_id;sensor_type;location;lat;lon;timestamp;temperature;humidity
8214;DHT22;4148;47.974;7.824;2023-11-21T00:00:04;9.40;1.00
8214;DHT22;4148;47.974;7.824;2023-11-21T00:02:36;9.40;1.00
8214;DHT22;4148;47.974;7.824;2023-11-21T00:05:08;9.40;1.00
8214;DHT22;4148;47.974;7.824;2023-11-21T00:07:37;9.30;1.00
8214;DHT22;4148;47.974;7.824;2023-11-21T00:10:06;9.30;1.00
8214;DHT22;4148;47.974;7.824;2023-11-21T00:12:35;9.30;1.00
8214;DHT22;4148;47.974;7.824;2023-11-21T00:15:04;9.30;1.00
8214;DHT22;4148;47.974;7.824;2023-11-21T00:17:36;9.30;1.00
8214;DHT22;4148;47.974;7.824;2023-11-21T00:20:05;9.30;1.00
8214;DHT22;4148;47.974;7.824;2023-11-21T00:22:35;9.30;1.00
8214;DHT22;4148;47.974;7.824;2023-11-21T00:25:04;9.20;1.00
8214;DHT22;4148;47.974;7.824;2023-11-21T00:27:32;9.20;1.00
8214;DHT22;4148;47.974;7.824;2023-11-21T00:30:01;9.20;1.00
8214;DHT22;4148;47.974;7.824;2023-11-21T00:32:32;9.20;1.00
8214;DHT22;4148;47.974;7.824;2023-11-21T00:35:00;9.10;1.00
8214;DHT22;4148;47.974;7.824;2023-11-21T00:37:28;9.10;1.00
8214;DHT22;4148;47.974;7.824;2023-11-21T00:40:00;9.10;1.00
8214;DHT22;4148;47.974;7.824;2023-11-21T00:42:31;9.10;1.00
8214;DHT22;4148;47.974;7.824;2023-11-21T00:45:00;9.10;1.00
8214;DHT22;4148;47.974;7.824;2023-11-21T00:47:28;9.10;1.00
8214;DHT22;4148;47.974;7.824;2023-11-21T00:49:56;9.10;1.00
8214;DHT22;4148;47.974;7.824;2023-11-21T00:52:24;9.10;1.00
8214;DHT22;4148;47.974;7.824;2023-11-21T00:54:53;9.10;1.00
8214;DHT22;4148;47.974;7.824;2023-11-21T00:57:22;9.00;1.00
8214;DHT22;4148;47.974;7.824;2023-11-21T00:59:50;9.00;1.00
8214;DHT22;4148;47.974;7.824;2023-11-21T01:02:18;9.00;1.00
8214;DHT22;4148;47.974;7.824;2023-11-21T01:04:46;9.00;1.00
8214;DHT22;4148;47.974;7.824;2023-11-21T01:07:14;9.00;1.00
8214;DHT22;4148;47.974;7.824;2023-11-21T01:09:42;9.00;1.00
8214;DHT22;4148;47.974;7.824;2023-11-21T01:12:11;9.00;1.00
8214;DHT22;4148;47.974;7.824;2023-11-21T01:14:40;9.00;1.00
8214;DHT22;4148;47.974;7.824;2023-11-21T01:17:08;8.90;1.00
8214;DHT22;4148;47.974;7.824;2023-11-21T01:19:36;8.90;1.00
8214;DHT22;4148;47.974;7.824;2023-11-21T01:22:04;8.90;1.00
8214;DHT22;4148;47.974;7.824;2023-11-21T01:24:32;8.90;1.00
8214;DHT22;4148;47.974;7.824;2023-11-21T01:27:00;8.90;1.00
8214;DHT22;4148;47.974;7.824;2023-11-21T01:29:27;8.90;1.00
8214;DHT22;4148;47.974;7.824;2023-11-21T01:31:57;8.90;1.00
8214;DHT22;4148;47.974;7.824;2023-11-21T01:34:25;8.90;1.00
8214;DHT22;4148;47.974;7.824;2023-11-21T01:36:53;8.90;1.00
8214;DHT22;4148;47.974;7.824;2023-11-21T01:39:20;8.90;1.00
8214;DHT22;4148;47.974;7.824;2023-11-21T01:41:50;8.90;1.00
8214;DHT22;4148;47.974;7.824;2023-11-21T01:44:19;8.90;1.00
8214;DHT22;4148;47.974;7.824;2023-11-21T01:46:47;8.90;1.00
8214;DHT22;4148;47.974;7.824;2023-11-21T01:49:17;8.90;1.00
8214;DHT22;4148;47.974;7.824;2023-11-21T01:51:48;8.90;1.00
8214;DHT22;4148;47.974;7.824;2023-11-21T01:54:17;8.90;1.00
8214;DHT22;4148;47.974;7.824;2023-11-21T01:56:46;8.90;1.00
8214;DHT22;4148;47.974;7.824;2023-11-21T01:59:18;8.90;1.00
8214;DHT22;4148;47.974;7.824;2023-11-21T02:01:47;8.90;1.00
8214;DHT22;4148;47.974;7.824;2023-11-21T02:04:18;8.90;1.00
8214;DHT22;4148;47.974;7.824;2023-11-21T02:06:48;8.90;1.00
8214;DHT22;4148;47.974;7.824;2023-11-21T02:09:24;8.90;1.00
8214;DHT22;4148;47.974;7.824;2023-11-21T02:11:52;8.80;1.00
8214;DHT22;4148;47.974;7.824;2023-11-21T02:14:24;8.90;1.00
8214;DHT22;4148;47.974;7.824;2023-11-21T02:16:54;8.90;1.00
8214;DHT22;4148;47.974;7.824;2023-11-21T02:19:23;8.90;1.00
8214;DHT22;4148;47.974;7.824;2023-11-21T02:21:53;8.90;1.00
8214;DHT22;4148;47.974;7.824;2023-11-21T02:24:23;8.90;1.00
8214;DHT22;4148;47.974;7.824;2023-11-21T02:26:51;8.90;1.00
8214;DHT22;4148;47.974;7.824;2023-11-21T02:29:19;8.90;1.00
8214;DHT22;4148;47.974;7.824;2023-11-21T02:31:52;8.90;1.00
8214;DHT22;4148;47.974;7.824;2023-11-21T02:34:22;8.90;1.00
8214;DHT22;4148;47.974;7.824;2023-11-21T02:36:52;8.90;1.00
8214;DHT22;4148;47.974;7.824;2023-11-21T02:39:20;8.90;1.00
8214;DHT22;4148;47.974;7.824;2023-11-21T02:41:51;8.90;1.00
8214;DHT22;4148;47.974;7.824;2023-11-21T02:44:20;8.80;1.00
8214;DHT22;4148;47.974;7.824;2023-11-21T02:46:48;8.80;1.00
8214;DHT22;4148;47.974;7.824;2023-11-21T02:49:16;8.90;1.00
8214;DHT22;4148;47.974;7.824;2023-11-21T02:51:43;8.80;1.00
8214;DHT22;4148;47.974;7.824;2023-11-21T02:54:11;8.80;1.00
8214;DHT22;4148;47.974;7.824;2023-11-21T02:56:39;8.80;1.00
8214;DHT22;4148;47.974;7.824;2023-11-21T02:59:09;8.80;1.00
8214;DHT22;4148;47.974;7.824;2023-11-21T03:01:36;8.80;1.00
8214;DHT22;4148;47.974;7.824;2023-11-21T03:04:05;8.80;1.00
8214;DHT22;4148;47.974;7.824;2023-11-21T03:06:33;8.80;1.00
8214;DHT22;4148;47.974;7.824;2023-11-21T03:09:01;8.80;1.00
8214;DHT22;4148;47.974;7.824;2023-11-21T03:11:29;8.80;1.00
8214;DHT22;4148;47.974;7.824;2023-11-21T03:13:57;8.70;1.00
8214;DHT22;4148;47.974;7.824;2023-11-21T03:16:26;8.70;1.00
8214;DHT22;4148;47.974;7.824;2023-11-21T03:18:54;8.70;1.00
8214;DHT22;4148;47.974;7.824;2023-11-21T03:21:22;8.70;1.00
8214;DHT22;4148;47.974;7.824;2023-11-21T03:23:50;8.70;1.00
8214;DHT22;4148;47.974;7.824;2023-11-21T03:26:18;8.70;1.00
8214;DHT22;4148;47.974;7.824;2023-11-21T03:28:46;8.80;1.00
8214;DHT22;4148;47.974;7.824;2023-11-21T03:31:15;8.70;1.00
8214;DHT22;4148;47.974;7.824;2023-11-21T03:33:45;8.80;1.00
8214;DHT22;4148;47.974;7.824;2023-11-21T03:36:14;8.80;1.00
8214;DHT22;4148;47.974;7.824;2023-11-21T03:38:42;8.80;1.00
8214;DHT22;4148;47.974;7.824;2023-11-21T03:41:10;8.80;1.00
8214;DHT22;4148;47.974;7.824;2023-11-21T03:43:38;8.80;1.00
8214;DHT22;4148;47.974;7.824;2023-11-21T03:46:06;8.80;1.00
8214;DHT22;4148;47.974;7.824;2023-11-21T03:48:34;8.80;1.00
8214;DHT22;4148;47.974;7.824;2023-11-21T03:51:04;8.80;1.00
8214;DHT22;4148;47.974;7.824;2023-11-21T03:53:32;8.80;1.00
8214;DHT22;4148;47.974;7.824;2023-11-21T03:56:02;8.80;1.00
8214;DHT22;4148;47.974;7.824;2023-11-21T03:58:30;8.80;1.00
8214;DHT22;4148;47.974;7.824;2023-11-21T04:00:57;8.90;1.00
8214;DHT22;4148;47.974;7.824;2023-11-21T04:03:25;8.80;1.00
8214;DHT22;4148;47.974;7.824;2023-11-21T04:05:53;8.90;1.00
8214;DHT22;4148;47.974;7.824;2023-11-21T04:08:23;8.90;1.00
8214;DHT22;4148;47.974;7.824;2023-11-21T04:10:52;8.80;1.00
8214;DHT22;4148;47.974;7.824;2023-11-21T04:13:21;8.80;1.00
8214;DHT22;4148;47.974;7.824;2023-11-21T04:15:49;8.80;1.00
8214;DHT22;4148;47.974;7.824;2023-11-21T04:18:17;8.80;1.00
8214;DHT22;4148;47.974;7.824;2023-11-21T04:20:45;8.80;1.00
8214;DHT22;4148;47.974;7.824;2023-11-21T04:23:13;8.80;1.00
8214;DHT22;4148;47.974;7.824;2023-11-21T04:25:43;8.80;1.00
8214;DHT22;4148;47.974;7.824;2023-11-21T04:28:11;8.70;1.00
8214;DHT22;4148;47.974;7.824;2023-11-21T04:30:38;8.70;1.00
8214;DHT22;4148;47.974;7.824;2023-11-21T04:33:07;8.70;1.00
8214;DHT22;4148;47.974;7.824;2023-11-21T04:35:35;8.70;1.00
8214;DHT22;4148;47.974;7.824;2023-11-21T04:38:03;8.70;1.00
8214;DHT22;4148;47.974;7.824;2023-11-21T04:40:31;8.70;1.00
8214;DHT22;4148;47.974;7.824;2023-11-21T04:43:00;8.70;1.00
8214;DHT22;4148;47.974;7.824;2023-11-21T04:45:28;8.70;1.00
8214;DHT22;4148;47.974;7.824;2023-11-21T04:47:56;8.70;1.00
8214;DHT22;4148;47.974;7.824;2023-11-21T04:50:24;8.80;1.00
8214;DHT22;4148;47.974;7.824;2023-11-21T04:52:53;8.70;1.00
8214;DHT22;4148;47.974;7.824;2023-11-21T04:55:21;8.70;1.00
8214;DHT22;4148;47.974;7.824;2023-11-21T04:57:49;8.70;1.00
8214;DHT22;4148;47.974;7.824;2023-11-21T05:00:19;8.80;1.00
8214;DHT22;4148;47.974;7.824;2023-11-21T05:02:48;8.80;1.00
8214;DHT22;4148;47.974;7.824;2023-11-21T05:05:16;8.80;1.00
8214;DHT22;4148;47.974;7.824;2023-11-21T05:07:44;8.80;1.00
8214;DHT22;4148;47.974;7.824;2023-11-21T05:10:12;8.80;1.00
8214;DHT22;4148;47.974;7.824;2023-11-21T05:12:42;8.80;1.00
8214;DHT22;4148;47.974;7.824;2023-11-21T05:15:14;8.80;1.00
8214;DHT22;4148;47.974;7.824;2023-11-21T05:17:44;8.70;1.00
8214;DHT22;4148;47.974;7.824;2023-11-21T05:20:14;8.70;1.00
8214;DHT22;4148;47.974;7.824;2023-11-21T05:22:45;8.80;1.00
8214;DHT22;4148;47.974;7.824;2023-11-21T05:25:13;8.80;1.00
8214;DHT22;4148;47.974;7.824;2023-11-21T05:27:41;8.80;1.00
8214;DHT22;4148;47.974;7.824;2023-11-21T05:30:09;8.80;1.00
8214;DHT22;4148;47.974;7.824;2023-11-21T05:32:39;8.80;1.00
8214;DHT22;4148;47.974;7.824;2023-11-21T05:35:10;8.80;1.00
8214;DHT22;4148;47.974;7.824;2023-11-21T05:37:43;8.70;1.00
8214;DHT22;4148;47.974;7.824;2023-11-21T05:40:12;8.80;1.00
8214;DHT22;4148;47.974;7.824;2023-11-21T05:42:40;8.80;1.00
8214;DHT22;4148;47.974;7.824;2023-11-21T05:45:09;8.80;1.00
8214;DHT22;4148;47.974;7.824;2023-11-21T05:47:40;8.70;1.00
8214;DHT22;4148;47.974;7.824;2023-11-21T05:50:10;8.70;1.00
8214;DHT22;4148;47.974;7.824;2023-11-21T05:52:39;8.70;1.00
8214;DHT22;4148;47.974;7.824;2023-11-21T05:55:07;8.70;1.00
8214;DHT22;4148;47.974;7.824;2023-11-21T05:57:36;8.60;1.00
8214;DHT22;4148;47.974;7.824;2023-11-21T06:00:06;8.60;1.00
8214;DHT22;4148;47.974;7.824;2023-11-21T06:02:38;8.60;1.00
8214;DHT22;4148;47.974;7.824;2023-11-21T06:05:07;8.60;1.00
8214;DHT22;4148;47.974;7.824;2023-11-21T06:07:37;8.60;1.00
8214;DHT22;4148;47.974;7.824;2023-11-21T06:10:08;8.60;1.00
8214;DHT22;4148;47.974;7.824;2023-11-21T06:12:38;8.50;1.00
8214;DHT22;4148;47.974;7.824;2023-11-21T06:15:08;8.50;1.00
8214;DHT22;4148;47.974;7.824;2023-11-21T06:17:36;8.50;1.00
8214;DHT22;4148;47.974;7.824;2023-11-21T06:20:05;8.50;1.00
8214;DHT22;4148;47.974;7.824;2023-11-21T06:22:38;8.50;1.00
8214;DHT22;4148;47.974;7.824;2023-11-21T06:25:08;8.50;1.00
8214;DHT22;4148;47.974;7.824;2023-11-21T06:27:38;8.50;1.00
8214;DHT22;4148;47.974;7.824;2023-11-21T06:30:07;8.50;1.00
8214;DHT22;4148;47.974;7.824;2023-11-21T06:32:36;8.50;1.00
8214;DHT22;4148;47.974;7.824;2023-11-21T06:35:06;8.40;1.00
8214;DHT22;4148;47.974;7.824;2023-11-21T06:37:34;8.50;1.00
8214;DHT22;4148;47.974;7.824;2023-11-21T06:40:05;8.40;1.00
8214;DHT22;4148;47.974;7.824;2023-11-21T06:42:33;8.40;1.00
8214;DHT22;4148;47.974;7.824;2023-11-21T06:45:01;8.40;1.00
8214;DHT22;4148;47.974;7.824;2023-11-21T06:47:30;8.40;1.00
8214;DHT22;4148;47.974;7.824;2023-11-21T06:49:59;8.40;1.00
8214;DHT22;4148;47.974;7.824;2023-11-21T06:52:27;8.40;1.00
8214;DHT22;4148;47.974;7.824;2023-11-21T06:54:55;8.40;1.00
8214;DHT22;4148;47.974;7.824;2023-11-21T06:57:25;8.40;1.00
8214;DHT22;4148;47.974;7.824;2023-11-21T06:59:53;8.40;1.00
8214;DHT22;4148;47.974;7.824;2023-11-21T07:02:20;8.40;1.00
8214;DHT22;4148;47.974;7.824;2023-11-21T07:04:48;8.40;1.00
8214;DHT22;4148;47.974;7.824;2023-11-21T07:07:17;8.40;1.00
8214;DHT22;4148;47.974;7.824;2023-11-21T07:09:45;8.40;1.00
8214;DHT22;4148;47.974;7.824;2023-11-21T07:12:14;8.40;1.00
8214;DHT22;4148;47.974;7.824;2023-11-21T07:14:43;8.40;1.00
8214;DHT22;4148;47.974;7.824;2023-11-21T07:17:12;8.40;1.00
8214;DHT22;4148;47.974;7.824;2023-11-21T07:19:40;8.40;1.00
8214;DHT22;4148;47.974;7.824;2023-11-21T07:22:08;8.40;1.00
8214;DHT22;4148;47.974;7.824;2023-11-21T07:24:37;8.40;1.00
8214;DHT22;4148;47.974;7.824;2023-11-21T07:27:05;8.50;1.00
8214;DHT22;4148;47.974;7.824;2023-11-21T07:29:33;8.50;1.00
8214;DHT22;4148;47.974;7.824;2023-11-21T07:32:02;8.50;1.00
8214;DHT22;4148;47.974;7.824;2023-11-21T07:34:30;8.50;1.00
8214;DHT22;4148;47.974;7.824;2023-11-21T07:36:58;8.50;1.00
8214;DHT22;4148;47.974;7.824;2023-11-21T07:39:26;8.60;1.00
8214;DHT22;4148;47.974;7.824;2023-11-21T07:41:54;8.50;1.00
8214;DHT22;4148;47.974;7.824;2023-11-21T07:44:23;8.60;1.00
8214;DHT22;4148;47.974;7.824;2023-11-21T07:46:51;8.50;1.00
8214;DHT22;4148;47.974;7.824;2023-11-21T07:49:25;8.50;1.00
8214;DHT22;4148;47.974;7.824;2023-11-21T07:51:53;8.60;1.00
8214;DHT22;4148;47.974;7.824;2023-11-21T07:54:21;8.60;5.30
8214;DHT22;4148;47.974;7.824;2023-11-21T07:56:49;8.60;2.60
8214;DHT22;4148;47.974;7.824;2023-11-21T07:59:17;8.60;1.00
8214;DHT22;4148;47.974;7.824;2023-11-21T08:01:45;8.60;1.00
8214;DHT22;4148;47.974;7.824;2023-11-21T08:04:13;8.70;1.00
8214;DHT22;4148;47.974;7.824;2023-11-21T08:06:42;8.80;1.00
8214;DHT22;4148;47.974;7.824;2023-11-21T08:09:10;8.80;1.00
8214;DHT22;4148;47.974;7.824;2023-11-21T08:11:39;8.70;1.00
8214;DHT22;4148;47.974;7.824;2023-11-21T08:14:07;8.70;1.00
8214;DHT22;4148;47.974;7.824;2023-11-21T08:16:35;8.70;1.00
8214;DHT22;4148;47.974;7.824;2023-11-21T08:19:03;8.80;1.00
8214;DHT22;4148;47.974;7.824;2023-11-21T08:21:31;8.80;1.00
8214;DHT22;4148;47.974;7.824;2023-11-21T08:24:00;8.80;1.00
8214;DHT22;4148;47.974;7.824;2023-11-21T08:26:28;8.80;1.00
8214;DHT22;4148;47.974;7.824;2023-11-21T08:28:56;8.90;1.00
8214;DHT22;4148;47.974;7.824;2023-11-21T08:31:25;8.90;1.00
8214;DHT22;4148;47.974;7.824;2023-11-21T08:33:53;8.90;1.00
8214;DHT22;4148;47.974;7.824;2023-11-21T08:36:22;8.90;1.00
8214;DHT22;4148;47.974;7.824;2023-11-21T08:38:51;8.90;1.00
8214;DHT22;4148;47.974;7.824;2023-11-21T08:41:20;8.90;1.00
8214;DHT22;4148;47.974;7.824;2023-11-21T08:43:50;8.90;1.00
8214;DHT22;4148;47.974;7.824;2023-11-21T08:46:19;8.90;1.00
8214;DHT22;4148;47.974;7.824;2023-11-21T08:48:47;8.90;1.00
8214;DHT22;4148;47.974;7.824;2023-11-21T08:51:15;8.90;1.00
8214;DHT22;4148;47.974;7.824;2023-11-21T08:53:44;9.00;1.00
8214;DHT22;4148;47.974;7.824;2023-11-21T08:56:12;9.00;1.00
8214;DHT22;4148;47.974;7.824;2023-11-21T08:58:42;9.00;1.00
8214;DHT22;4148;47.974;7.824;2023-11-21T09:01:09;9.10;1.00
8214;DHT22;4148;47.974;7.824;2023-11-21T09:03:39;9.20;1.00
8214;DHT22;4148;47.974;7.824;2023-11-21T09:06:07;9.10;1.00
8214;DHT22;4148;47.974;7.824;2023-11-21T09:08:36;9.20;1.00
8214;DHT22;4148;47.974;7.824;2023-11-21T09:11:05;9.30;1.00
8214;DHT22;4148;47.974;7.824;2023-11-21T09:13:34;9.30;1.00
8214;DHT22;4148;47.974;7.824;2023-11-21T09:16:05;9.30;1.00
8214;DHT22;4148;47.974;7.824;2023-11-21T09:18:33;9.30;1.00
8214;DHT22;4148;47.974;7.824;2023-11-21T09:21:01;9.30;1.00
8214;DHT22;4148;47.974;7.824;2023-11-21T09:23:29;9.30;1.00
8214;DHT22;4148;47.974;7.824;2023-11-21T09:25:57;9.30;1.00
8214;DHT22;4148;47.974;7.824;2023-11-21T09:28:26;9.30;1.00
8214;DHT22;4148;47.974;7.824;2023-11-21T09:30:54;9.40;1.00
8214;DHT22;4148;47.974;7.824;2023-11-21T09:33:24;9.40;1.00
8214;DHT22;4148;47.974;7.824;2023-11-21T09:35:52;9.50;1.00
8214;DHT22;4148;47.974;7.824;2023-11-21T09:38:20;9.50;1.00
8214;DHT22;4148;47.974;7.824;2023-11-21T09:40:48;9.50;1.00
8214;DHT22;4148;47.974;7.824;2023-11-21T09:43:18;9.50;1.00
8214;DHT22;4148;47.974;7.824;2023-11-21T09:45:47;9.50;1.00
8214;DHT22;4148;47.974;7.824;2023-11-21T09:48:17;9.50;1.00
8214;DHT22;4148;47.974;7.824;2023-11-21T09:50:48;9.50;1.00
8214;DHT22;4148;47.974;7.824;2023-11-21T09:53:21;9.50;1.00
8214;DHT22;4148;47.974;7.824;2023-11-21T09:55:52;9.50;1.00
8214;DHT22;4148;47.974;7.824;2023-11-21T09:58:21;9.50;1.00
8214;DHT22;4148;47.974;7.824;2023-11-21T10:00:54;9.60;1.00
8214;DHT22;4148;47.974;7.824;2023-11-21T10:03:23;9.60;1.00
8214;DHT22;4148;47.974;7.824;2023-11-21T10:05:53;9.60;1.00
8214;DHT22;4148;47.974;7.824;2023-11-21T10:08:27;9.60;1.00
8214;DHT22;4148;47.974;7.824;2023-11-21T10:11:12;9.60;1.00
8214;DHT22;4148;47.974;7.824;2023-11-21T10:13:43;9.60;1.00
8214;DHT22;4148;47.974;7.824;2023-11-21T10:16:14;9.50;1.00
8214;DHT22;4148;47.974;7.824;2023-11-21T10:18:43;9.50;1.00
8214;DHT22;4148;47.974;7.824;2023-11-21T10:21:14;9.40;1.00
8214;DHT22;4148;47.974;7.824;2023-11-21T10:23:42;9.30;1.00
8214;DHT22;4148;47.974;7.824;2023-11-21T10:26:12;9.30;1.00
8214;DHT22;4148;47.974;7.824;2023-11-21T10:28:55;9.20;1.00
8214;DHT22;4148;47.974;7.824;2023-11-21T10:31:23;9.20;1.00
8214;DHT22;4148;47.974;7.824;2023-11-21T10:33:51;9.10;1.00
8214;DHT22;4148;47.974;7.824;2023-11-21T10:36:27;9.10;1.00
8214;DHT22;4148;47.974;7.824;2023-11-21T10:38:55;9.10;1.00
8214;DHT22;4148;47.974;7.824;2023-11-21T10:41:24;9.10;1.00
8214;DHT22;4148;47.974;7.824;2023-11-21T10:43:53;9.10;1.00
8214;DHT22;4148;47.974;7.824;2023-11-21T10:46:22;9.10;1.00
8214;DHT22;4148;47.974;7.824;2023-11-21T10:48:52;9.10;1.00
8214;DHT22;4148;47.974;7.824;2023-11-21T10:51:22;9.10;1.00
8214;DHT22;4148;47.974;7.824;2023-11-21T10:53:52;9.00;1.00
8214;DHT22;4148;47.974;7.824;2023-11-21T10:56:23;9.00;1.00
8214;DHT22;4148;47.974;7.824;2023-11-21T10:58:51;9.00;1.00
8214;DHT22;4148;47.974;7.824;2023-11-21T11:01:21;9.00;1.00
8214;DHT22;4148;47.974;7.824;2023-11-21T11:03:56;9.10;1.00
8214;DHT22;4148;47.974;7.824;2023-11-21T11:06:24;9.20;1.00
8214;DHT22;4148;47.974;7.824;2023-11-21T11:08:55;9.20;1.00
8214;DHT22;4148;47.974;7.824;2023-11-21T11:11:24;9.20;1.00
8214;DHT22;4148;47.974;7.824;2023-11-21T11:13:53;9.20;1.00
8214;DHT22;4148;47.974;7.824;2023-11-21T11:16:21;9.10;1.00
8214;DHT22;4148;47.974;7.824;2023-11-21T11:18:51;9.10;1.00
8214;DHT22;4148;47.974;7.824;2023-11-21T11:21:27;9.10;1.00
8214;DHT22;4148;47.974;7.824;2023-11-21T11:24:17;9.10;1.00
8214;DHT22;4148;47.974;7.824;2023-11-21T11:26:54;9.10;1.00
8214;DHT22;4148;47.974;7.824;2023-11-21T11:29:35;9.10;1.00
8214;DHT22;4148;47.974;7.824;2023-11-21T11:32:12;9.10;1.00
8214;DHT22;4148;47.974;7.824;2023-11-21T11:34:47;9.00;3.40
8214;DHT22;4148;47.974;7.824;2023-11-21T11:37:16;9.10;1.80
8214;DHT22;4148;47.974;7.824;2023-11-21T11:39:49;9.10;1.50
8214;DHT22;4148;47.974;7.824;2023-11-21T11:42:17;9.00;4.00
8214;DHT22;4148;47.974;7.824;2023-11-21T11:44:48;9.00;6.50
8214;DHT22;4148;47.974;7.824;2023-11-21T11:47:23;8.90;11.80
8214;DHT22;4148;47.974;7.824;2023-11-21T11:50:01;8.90;15.90
8214;DHT22;4148;47.974;7.824;2023-11-21T11:52:39;8.80;16.40
8214;DHT22;4148;47.974;7.824;2023-11-21T11:55:10;8.80;16.60
8214;DHT22;4148;47.974;7.824;2023-11-21T11:57:39;8.80;16.60
8214;DHT22;4148;47.974;7.824;2023-11-21T12:00:11;8.80;22.20
8214;DHT22;4148;47.974;7.824;2023-11-21T12:02:44;8.90;22.20
8214;DHT22;4148;47.974;7.824;2023-11-21T12:05:15;8.90;17.60
8214;DHT22;4148;47.974;7.824;2023-11-21T12:07:49;9.00;18.50
8214;DHT22;4148;47.974;7.824;2023-11-21T12:10:22;9.00;12.20
8214;DHT22;4148;47.974;7.824;2023-11-21T12:12:52;9.00;14.80
8214;DHT22;4148;47.974;7.824;2023-11-21T12:15:21;9.00;11.50
8214;DHT22;4148;47.974;7.824;2023-11-21T12:17:49;9.10;15.60
8214;DHT22;4148;47.974;7.824;2023-11-21T12:20:19;9.10;13.00
8214;DHT22;4148;47.974;7.824;2023-11-21T12:22:49;9.10;14.10
8214;DHT22;4148;47.974;7.824;2023-11-21T12:25:21;9.10;9.90
8214;DHT22;4148;47.974;7.824;2023-11-21T12:27:50;9.00;13.90
8214;DHT22;4148;47.974;7.824;2023-11-21T12:30:19;9.10;16.00
8214;DHT22;4148;47.974;7.824;2023-11-21T12:32:49;9.10;18.60
8214;DHT22;4148;47.974;7.824;2023-11-21T12:35:18;9.10;16.60
8214;DHT22;4148;47.974;7.824;2023-11-21T12:37:48;9.20;15.40
8214;DHT22;4148;47.974;7.824;2023-11-21T12:40:17;9.20;14.00
8214;DHT22;4148;47.974;7.824;2023-11-21T12:42:48;9.30;15.50
8214;DHT22;4148;47.974;7.824;2023-11-21T12:45:21;9.30;7.40
8214;DHT22;4148;47.974;7.824;2023-11-21T12:47:54;9.30;5.00
8214;DHT22;4148;47.974;7.824;2023-11-21T12:50:24;9.30;6.00
8214;DHT22;4148;47.974;7.824;2023-11-21T12:53:00;9.30;3.00
8214;DHT22;4148;47.974;7.824;2023-11-21T12:55:31;9.30;5.80
8214;DHT22;4148;47.974;7.824;2023-11-21T12:58:02;9.40;10.10
8214;DHT22;4148;47.974;7.824;2023-11-21T13:00:37;9.40;7.50
8214;DHT22;4148;47.974;7.824;2023-11-21T13:03:08;9.40;10.10
8214;DHT22;4148;47.974;7.824;2023-11-21T13:05:38;9.30;6.70
8214;DHT22;4148;47.974;7.824;2023-11-21T13:08:07;9.40;8.20
8214;DHT22;4148;47.974;7.824;2023-11-21T13:10:39;9.40;10.70
8214;DHT22;4148;47.974;7.824;2023-11-21T13:13:12;9.40;14.50
8214;DHT22;4148;47.974;7.824;2023-11-21T13:15:51;9.40;4.20
8214;DHT22;4148;47.974;7.824;2023-11-21T13:18:19;9.50;3.20
8214;DHT22;4148;47.974;7.824;2023-11-21T13:20:49;9.50;4.30
8214;DHT22;4148;47.974;7.824;2023-11-21T13:23:17;9.50;9.70
8214;DHT22;4148;47.974;7.824;2023-11-21T13:25:45;9.60;11.80
8214;DHT22;4148;47.974;7.824;2023-11-21T13:28:29;9.60;13.60
8214;DHT22;4148;47.974;7.824;2023-11-21T13:31:00;9.70;14.20
8214;DHT22;4148;47.974;7.824;2023-11-21T13:33:36;9.70;11.40
8214;DHT22;4148;47.974;7.824;2023-11-21T13:36:06;9.70;6.70
8214;DHT22;4148;47.974;7.824;2023-11-21T13:38:37;9.70;2.40
8214;DHT22;4148;47.974;7.824;2023-11-21T13:41:09;9.70;6.00
8214;DHT22;4148;47.974;7.824;2023-11-21T13:43:41;9.60;3.10
8214;DHT22;4148;47.974;7.824;2023-11-21T13:46:14;9.60;5.30
8214;DHT22;4148;47.974;7.824;2023-11-21T13:48:49;9.60;5.80
8214;DHT22;4148;47.974;7.824;2023-11-21T13:51:22;9.50;7.70
8214;DHT22;4148;47.974;7.824;2023-11-21T13:53:58;9.50;8.80
8214;DHT22;4148;47.974;7.824;2023-11-21T13:56:27;9.60;13.30
8214;DHT22;4148;47.974;7.824;2023-11-21T13:58:57;9.50;14.40
8214;DHT22;4148;47.974;7.824;2023-11-21T14:01:30;9.60;11.50
8214;DHT22;4148;47.974;7.824;2023-11-21T14:04:21;9.60;10.20
8214;DHT22;4148;47.974;7.824;2023-11-21T14:07:02;9.70;15.30
8214;DHT22;4148;47.974;7.824;2023-11-21T14:09:47;9.70;9.20
8214;DHT22;4148;47.974;7.824;2023-11-21T14:12:16;9.70;6.70
8214;DHT22;4148;47.974;7.824;2023-11-21T14:14:45;9.70;4.20
8214;DHT22;4148;47.974;7.824;2023-11-21T14:17:14;9.70;3.70
8214;DHT22;4148;47.974;7.824;2023-11-21T14:19:42;9.70;1.00
8214;DHT22;4148;47.974;7.824;2023-11-21T14:22:11;9.70;1.00
8214;DHT22;4148;47.974;7.824;2023-11-21T14:24:39;9.70;1.00
8214;DHT22;4148;47.974;7.824;2023-11-21T14:27:12;9.60;1.00
8214;DHT22;4148;47.974;7.824;2023-11-21T14:29:41;9.60;1.40
8214;DHT22;4148;47.974;7.824;2023-11-21T14:32:12;9.60;1.00
8214;DHT22;4148;47.974;7.824;2023-11-21T14:34:41;9.50;1.00
8214;DHT22;4148;47.974;7.824;2023-11-21T14:37:12;9.50;1.00
8214;DHT22;4148;47.974;7.824;2023-11-21T14:39:40;9.50;1.00
8214;DHT22;4148;47.974;7.824;2023-11-21T14:42:11;9.50;2.50
8214;DHT22;4148;47.974;7.824;2023-11-21T14:44:41;9.50;1.00
8214;DHT22;4148;47.974;7.824;2023-11-21T14:47:09;9.40;1.00
8214;DHT22;4148;47.974;7.824;2023-11-21T14:49:43;9.40;1.00
8214;DHT22;4148;47.974;7.824;2023-11-21T14:52:20;9.40;1.00
8214;DHT22;4148;47.974;7.824;2023-11-21T14:55:00;9.40;1.00
8214;DHT22;4148;47.974;7.824;2023-11-21T14:57:45;9.40;1.00
8214;DHT22;4148;47.974;7.824;2023-11-21T15:00:17;9.40;1.00
8214;DHT22;4148;47.974;7.824;2023-11-21T15:03:03;9.30;1.00
8214;DHT22;4148;47.974;7.824;2023-11-21T15:05:33;9.40;1.00
8214;DHT22;4148;47.974;7.824;2023-11-21T15:08:02;9.30;1.00
8214;DHT22;4148;47.974;7.824;2023-11-21T15:10:45;9.40;1.00
8214;DHT22;4148;47.974;7.824;2023-11-21T15:13:14;9.30;1.00
8214;DHT22;4148;47.974;7.824;2023-11-21T15:15:42;9.30;1.00
8214;DHT22;4148;47.974;7.824;2023-11-21T15:18:09;9.30;2.70
8214;DHT22;4148;47.974;7.824;2023-11-21T15:20:41;9.30;4.70
8214;DHT22;4148;47.974;7.824;2023-11-21T15:23:10;9.30;2.90
8214;DHT22;4148;47.974;7.824;2023-11-21T15:25:39;9.30;1.30
8214;DHT22;4148;47.974;7.824;2023-11-21T15:28:07;9.20;3.90
8214;DHT22;4148;47.974;7.824;2023-11-21T15:30:35;9.20;2.30
8214;DHT22;4148;47.974;7.824;2023-11-21T15:33:03;9.20;7.70
8214;DHT22;4148;47.974;7.824;2023-11-21T15:35:32;9.20;7.70
8214;DHT22;4148;47.974;7.824;2023-11-21T15:38:01;9.20;9.10
8214;DHT22;4148;47.974;7.824;2023-11-21T15:40:29;9.20;9.00
8214;DHT22;4148;47.974;7.824;2023-11-21T15:42:58;9.20;12.20
8214;DHT22;4148;47.974;7.824;2023-11-21T15:45:26;9.20;10.50
8214;DHT22;4148;47.974;7.824;2023-11-21T15:47:54;9.20;6.50
8214;DHT22;4148;47.974;7.824;2023-11-21T15:50:23;9.30;7.20
8214;DHT22;4148;47.974;7.824;2023-11-21T15:52:52;9.30;7.60
8214;DHT22;4148;47.974;7.824;2023-11-21T15:55:25;9.20;10.00
8214;DHT22;4148;47.974;7.824;2023-11-21T15:57:53;9.20;8.40
8214;DHT22;4148;47.974;7.824;2023-11-21T16:00:21;9.20;8.20
8214;DHT22;4148;47.974;7.824;2023-11-21T16:02:51;9.20;10.00
8214;DHT22;4148;47.974;7.824;2023-11-21T16:05:21;9.20;4.60
8214;DHT22;4148;47.974;7.824;2023-11-21T16:07:52;9.20;7.10
8214;DHT22;4148;47.974;7.824;2023-11-21T16:10:21;9.20;12.20
8214;DHT22;4148;47.974;7.824;2023-11-21T16:12:51;9.20;10.50
8214;DHT22;4148;47.974;7.824;2023-11-21T16:15:19;9.20;8.40
8214;DHT22;4148;47.974;7.824;2023-11-21T16:17:49;9.10;11.00
8214;DHT22;4148;47.974;7.824;2023-11-21T16:20:17;9.20;9.90
8214;DHT22;4148;47.974;7.824;2023-11-21T16:22:45;9.10;14.40
8214;DHT22;4148;47.974;7.824;2023-11-21T16:25:13;9.10;9.40
8214;DHT22;4148;47.974;7.824;2023-11-21T16:27:41;9.10;11.80
8214;DHT22;4148;47.974;7.824;2023-11-21T16:30:12;9.10;8.90
8214;DHT22;4148;47.974;7.824;2023-11-21T16:32:40;9.10;4.30
8214;DHT22;4148;47.974;7.824;2023-11-21T16:35:08;9.10;1.90
8214;DHT22;4148;47.974;7.824;2023-11-21T16:37:39;9.10;7.90
8214;DHT22;4148;47.974;7.824;2023-11-21T16:40:09;9.10;7.00
8214;DHT22;4148;47.974;7.824;2023-11-21T16:42:37;9.10;8.60
8214;DHT22;4148;47.974;7.824;2023-11-21T16:45:06;9.10;3.40
8214;DHT22;4148;47.974;7.824;2023-11-21T16:47:36;9.20;9.20